createdAt,value
2022-11-12T00:00:00.267Z,0.93
2022-11-12T00:02:34.127Z,1.43
2022-11-12T00:05:01.601Z,1.97
2022-11-12T00:07:29.143Z,2.37
2022-11-12T00:10:03.105Z,4.23
2022-11-12T00:12:30.497Z,1.37
2022-11-12T00:14:57.864Z,1.53
2022-11-12T00:17:32.082Z,2.30
2022-11-12T00:19:59.479Z,1.30
2022-11-12T00:22:26.996Z,1.57
2022-11-12T00:25:01.080Z,3.50
2022-11-12T00:27:28.480Z,2.03
2022-11-12T00:29:55.964Z,1.77
2022-11-12T00:32:30.068Z,1.53
2022-11-12T00:35:00.275Z,1.40
2022-11-12T00:37:30.052Z,2.03
2022-11-12T00:40:04.089Z,3.00
2022-11-12T00:42:31.567Z,2.90
2022-11-12T00:44:59.032Z,2.27
2022-11-12T00:47:33.082Z,3.30
2022-11-12T00:50:00.580Z,2.07
2022-11-12T00:52:28.047Z,2.47
2022-11-12T00:55:02.116Z,1.50
2022-11-12T00:57:29.528Z,1.23
2022-11-12T01:00:10.096Z,2.30
2022-11-12T01:02:43.238Z,1.20
2022-11-12T01:05:19.080Z,1.30
2022-11-12T01:07:49.415Z,1.60
2022-11-12T01:10:27.109Z,2.30
2022-11-12T01:12:55.587Z,2.43
2022-11-12T01:15:23.025Z,1.73
2022-11-12T01:17:57.086Z,2.83
2022-11-12T01:20:24.521Z,0.90
2022-11-12T01:22:51.996Z,1.33
2022-11-12T01:25:26.096Z,0.80
2022-11-12T01:27:53.690Z,1.13
2022-11-12T01:30:21.126Z,1.40
2022-11-12T01:32:55.140Z,1.50
2022-11-12T01:35:22.759Z,0.90
2022-11-12T01:37:50.128Z,1.13
2022-11-12T01:40:24.125Z,1.17
2022-11-12T01:42:54.974Z,2.27
2022-11-12T01:45:23.119Z,1.43
2022-11-12T01:47:59.148Z,1.33
2022-11-12T01:50:33.953Z,1.17
2022-11-12T01:53:13.105Z,1.10
2022-11-12T01:55:40.876Z,1.53
2022-11-12T01:58:21.131Z,1.07
2022-11-12T02:00:55.547Z,1.10
2022-11-12T02:03:31.111Z,0.90
2022-11-12T02:06:04.242Z,0.70
2022-11-12T02:08:39.111Z,0.93
2022-11-12T02:11:14.844Z,1.30
2022-11-12T02:14:06.139Z,0.60
2022-11-12T02:16:40.331Z,1.03
2022-11-12T02:19:17.181Z,4.73
2022-11-12T02:21:45.344Z,0.70
2022-11-12T02:24:12.835Z,1.07
2022-11-12T02:26:53.176Z,1.27
2022-11-12T02:29:21.185Z,0.90
2022-11-12T02:31:48.745Z,1.90
2022-11-12T02:34:23.185Z,0.70
2022-11-12T02:36:50.643Z,0.73
2022-11-12T02:39:18.878Z,1.20
2022-11-12T02:41:53.185Z,1.90
2022-11-12T02:44:20.580Z,2.50
2022-11-12T02:46:47.947Z,0.60
2022-11-12T02:49:22.105Z,0.70
2022-11-12T02:51:49.528Z,0.83
2022-11-12T02:54:16.986Z,0.67
2022-11-12T02:56:51.094Z,0.80
2022-11-12T02:59:25.177Z,0.90
2022-11-12T03:01:59.121Z,3.87
2022-11-12T03:04:26.616Z,0.70
2022-11-12T03:06:54.135Z,0.87
2022-11-12T03:09:28.158Z,1.33
2022-11-12T03:11:55.683Z,1.00
2022-11-12T03:14:23.454Z,0.67
2022-11-12T03:16:57.113Z,0.67
2022-11-12T03:19:24.661Z,0.83
2022-11-12T03:21:52.035Z,0.77
2022-11-12T03:24:26.108Z,0.57
2022-11-12T03:26:53.672Z,1.23
2022-11-12T03:29:21.175Z,1.47
2022-11-12T03:31:55.110Z,0.87
2022-11-12T03:34:22.540Z,1.43
2022-11-12T03:36:50.173Z,0.70
2022-11-12T03:39:25.367Z,0.80
2022-11-12T03:41:52.801Z,0.70
2022-11-12T03:44:20.305Z,1.10
2022-11-12T03:46:54.112Z,1.20
2022-11-12T03:49:21.632Z,1.93
2022-11-12T03:51:49.116Z,0.87
2022-11-12T03:54:23.112Z,2.07
2022-11-12T03:56:50.642Z,0.90
2022-11-12T03:59:31.130Z,1.27
2022-11-12T04:01:58.502Z,1.20
2022-11-12T04:04:52.168Z,2.00
2022-11-12T04:07:38.040Z,1.30
2022-11-12T04:10:12.152Z,1.27
2022-11-12T04:13:01.060Z,1.77
2022-11-12T04:15:35.121Z,1.53
2022-11-12T04:18:20.998Z,1.33
2022-11-12T04:21:15.152Z,3.57
2022-11-12T04:23:42.550Z,1.13
2022-11-12T04:26:31.176Z,1.67
2022-11-12T04:29:16.974Z,1.97
2022-11-12T04:31:51.150Z,1.73
2022-11-12T04:34:30.574Z,2.23
2022-11-12T04:37:04.131Z,1.10
2022-11-12T04:39:31.677Z,0.93
2022-11-12T04:42:24.106Z,1.00
2022-11-12T04:45:20.887Z,3.30
2022-11-12T04:47:55.159Z,1.57
2022-11-12T04:50:22.589Z,1.40
2022-11-12T04:52:49.949Z,2.70
2022-11-12T04:55:24.103Z,3.20
2022-11-12T04:57:54.847Z,1.30
2022-11-12T05:00:40.115Z,2.37
2022-11-12T05:03:14.329Z,0.77
2022-11-12T05:05:48.158Z,1.10
2022-11-12T05:08:15.563Z,1.40
2022-11-12T05:10:44.286Z,3.37
2022-11-12T05:13:18.169Z,1.00
2022-11-12T05:15:45.534Z,2.23
2022-11-12T05:18:12.977Z,1.10
2022-11-12T05:20:47.137Z,2.30
2022-11-12T05:23:14.673Z,0.80
2022-11-12T05:25:42.114Z,1.97
2022-11-12T05:28:16.135Z,1.43
2022-11-12T05:30:43.812Z,2.50
2022-11-12T05:33:11.176Z,0.90
2022-11-12T05:35:45.131Z,0.63
2022-11-12T05:38:12.492Z,0.90
2022-11-12T05:41:02.157Z,0.70
2022-11-12T05:43:36.359Z,0.80
2022-11-12T05:46:10.120Z,1.70
2022-11-12T05:48:37.542Z,0.97
2022-11-12T05:51:13.594Z,0.80
2022-11-12T05:53:49.111Z,0.70
2022-11-12T05:56:16.555Z,0.70
2022-11-12T05:58:57.168Z,0.70
2022-11-12T06:01:31.334Z,0.77
2022-11-12T06:04:05.131Z,0.70
2022-11-12T06:06:32.505Z,0.80
2022-11-12T06:08:59.905Z,0.80
2022-11-12T06:11:34.125Z,0.63
2022-11-12T06:14:02.133Z,1.53
2022-11-12T06:16:30.274Z,1.80
2022-11-12T06:19:04.184Z,2.97
2022-11-12T06:21:31.572Z,0.93
2022-11-12T06:24:00.047Z,0.70
2022-11-12T06:26:36.148Z,0.97
2022-11-12T06:29:03.657Z,2.43
2022-11-12T06:31:31.118Z,1.30
2022-11-12T06:34:05.157Z,0.87
2022-11-12T06:36:32.669Z,0.67
2022-11-12T06:39:00.086Z,1.10
2022-11-12T06:41:34.142Z,1.07
2022-11-12T06:44:03.579Z,0.70
2022-11-12T06:46:31.061Z,1.63
2022-11-12T06:49:05.161Z,0.80
2022-11-12T06:51:32.639Z,0.50
2022-11-12T06:54:00.006Z,0.77
2022-11-12T06:56:34.134Z,2.80
2022-11-12T06:59:08.557Z,0.97
2022-11-12T07:01:49.256Z,0.63
2022-11-12T07:04:16.767Z,2.43
2022-11-12T07:06:44.457Z,1.20
2022-11-12T07:09:18.403Z,0.97
2022-11-12T07:11:45.984Z,0.93
2022-11-12T07:14:13.762Z,0.80
2022-11-12T07:16:48.938Z,0.80
2022-11-12T07:19:16.804Z,2.37
2022-11-12T07:21:44.249Z,2.53
2022-11-12T07:24:18.366Z,0.83
2022-11-12T07:26:47.599Z,1.87
2022-11-12T07:29:30.011Z,0.63
2022-11-12T07:32:09.165Z,0.70
2022-11-12T07:34:36.670Z,0.80
2022-11-12T07:37:04.207Z,0.80
2022-11-12T07:39:38.260Z,2.00
2022-11-12T07:42:05.927Z,0.70
2022-11-12T07:44:33.398Z,0.77
2022-11-12T07:47:07.255Z,1.43
2022-11-12T07:49:34.851Z,1.30
2022-11-12T07:52:02.767Z,1.20
2022-11-12T07:54:37.248Z,0.88
2022-11-12T07:57:04.943Z,0.80
2022-11-12T07:59:46.628Z,2.17
2022-11-12T08:02:20.427Z,0.65
2022-11-12T08:04:54.244Z,0.85
2022-11-12T08:07:22.373Z,1.27
2022-11-12T08:09:50.279Z,0.70
2022-11-12T08:12:24.283Z,1.13
2022-11-12T08:14:51.752Z,0.65
2022-11-12T08:17:19.420Z,1.10
2022-11-12T08:19:54.192Z,0.60
2022-11-12T08:22:21.897Z,1.08
2022-11-12T08:24:49.282Z,2.65
2022-11-12T08:27:23.195Z,0.88
2022-11-12T08:29:50.568Z,3.33
2022-11-12T08:32:17.975Z,1.65
2022-11-12T08:34:52.170Z,0.80
2022-11-12T08:37:19.581Z,0.93
2022-11-12T08:39:46.947Z,0.60
2022-11-12T08:42:21.178Z,0.55
2022-11-12T08:44:48.602Z,0.68
2022-11-12T08:47:16.028Z,0.65
2022-11-12T08:49:50.271Z,0.80
2022-11-12T08:52:17.686Z,4.25
2022-11-12T08:54:45.135Z,0.60
2022-11-12T08:57:19.239Z,0.68
2022-11-12T08:59:53.315Z,0.63
2022-11-12T09:02:34.220Z,0.60
2022-11-12T09:05:03.076Z,0.60
2022-11-12T09:10:33.246Z,0.93
2022-11-12T09:13:01.732Z,1.45
2022-11-12T09:15:37.827Z,0.47
2022-11-12T09:18:15.213Z,0.80
2022-11-12T09:20:42.843Z,0.60
2022-11-12T09:23:13.044Z,0.60
2022-11-12T09:25:49.238Z,0.60
2022-11-12T09:28:18.409Z,0.60
2022-11-12T09:30:48.170Z,0.70
2022-11-12T09:33:25.208Z,0.82
2022-11-12T09:35:54.689Z,0.80
2022-11-12T09:38:27.566Z,1.50
2022-11-12T09:41:43.456Z,0.98
2022-11-12T09:44:24.522Z,0.73
2022-11-12T09:47:22.206Z,1.20
2022-11-12T09:50:15.497Z,1.20
2022-11-12T09:52:53.300Z,0.95
2022-11-12T09:55:34.905Z,4.55
2022-11-12T09:58:19.272Z,1.52
2022-11-12T10:01:06.422Z,1.10
2022-11-12T10:04:22.271Z,1.08
2022-11-12T10:07:13.898Z,1.10
2022-11-12T10:09:57.759Z,1.17
2022-11-12T10:12:51.473Z,0.80
2022-11-12T10:16:24.723Z,0.77
2022-11-12T10:18:58.619Z,1.77
2022-11-12T10:21:52.315Z,1.05
2022-11-12T10:24:25.737Z,0.80
2022-11-12T10:27:03.549Z,0.70
2022-11-12T10:29:47.143Z,0.73
2022-11-12T10:32:26.044Z,1.25
2022-11-12T10:34:59.276Z,0.75
2022-11-12T10:38:00.390Z,1.10
2022-11-12T10:40:40.794Z,1.05
2022-11-12T10:43:25.935Z,0.90
2022-11-12T10:46:15.157Z,1.55
2022-11-12T10:49:06.867Z,1.10
2022-11-12T10:51:38.781Z,2.25
2022-11-12T10:54:44.960Z,1.45
2022-11-12T10:57:26.055Z,3.25
2022-11-12T11:00:31.040Z,4.65
2022-11-12T11:03:16.904Z,5.05
2022-11-12T11:06:12.442Z,4.15
2022-11-12T11:08:56.323Z,3.70
2022-11-12T11:11:34.278Z,3.20
2022-11-12T11:14:24.995Z,8.07
2022-11-12T11:17:15.331Z,4.35
2022-11-12T11:19:43.895Z,4.63
2022-11-12T11:22:27.269Z,3.35
2022-11-12T11:25:12.254Z,5.45
2022-11-12T11:27:50.310Z,4.40
2022-11-12T11:30:20.743Z,3.20
2022-11-12T11:33:27.301Z,7.10
2022-11-12T11:36:22.119Z,3.80
2022-11-12T11:39:12.220Z,2.85
2022-11-12T11:42:23.981Z,3.75
2022-11-12T11:45:04.304Z,4.65
2022-11-12T11:48:01.762Z,3.70
2022-11-12T11:50:59.387Z,4.35
2022-11-12T11:54:05.933Z,2.75
2022-11-12T11:56:51.244Z,4.05
2022-11-12T12:00:32.250Z,5.13
2022-11-12T12:03:30.452Z,3.97
2022-11-12T12:06:20.211Z,3.13
2022-11-12T12:09:24.294Z,3.75
2022-11-12T12:12:04.015Z,2.70
2022-11-12T12:15:03.321Z,8.25
2022-11-12T12:17:44.238Z,5.72
2022-11-12T12:20:49.405Z,3.55
2022-11-12T12:23:40.307Z,3.80
2022-11-12T12:26:21.389Z,6.13
2022-11-12T12:29:03.075Z,4.35
2022-11-12T12:31:44.413Z,2.72
2022-11-12T12:34:26.747Z,3.72
2022-11-12T12:37:13.339Z,3.75
2022-11-12T12:40:05.720Z,4.25
2022-11-12T12:42:55.382Z,4.68
2022-11-12T12:45:45.846Z,3.25
2022-11-12T12:48:34.455Z,5.72
2022-11-12T12:51:02.967Z,3.42
2022-11-12T12:53:31.849Z,10.05
2022-11-12T12:56:33.379Z,4.50
2022-11-12T12:59:05.898Z,3.60
2022-11-12T13:01:46.366Z,3.03
2022-11-12T13:04:13.979Z,2.88
2022-11-12T13:06:57.606Z,4.13
2022-11-12T13:09:27.499Z,3.75
2022-11-12T13:12:11.488Z,3.55
2022-11-12T13:14:39.344Z,3.42
2022-11-12T13:17:20.406Z,3.38
2022-11-12T13:20:10.758Z,4.57
2022-11-12T13:22:48.313Z,3.28
2022-11-12T13:25:17.476Z,5.75
2022-11-12T13:27:45.033Z,3.75
2022-11-12T13:30:25.354Z,3.90
2022-11-12T13:32:52.883Z,3.97
2022-11-12T13:35:23.143Z,5.63
2022-11-12T13:38:00.369Z,5.30
2022-11-12T13:40:30.935Z,3.53
2022-11-12T13:43:22.424Z,3.97
2022-11-12T13:46:00.610Z,3.65
2022-11-12T13:48:43.432Z,3.28
2022-11-12T13:51:52.464Z,3.72
2022-11-12T13:54:41.333Z,4.57
2022-11-12T13:57:15.922Z,4.35
2022-11-12T13:59:56.330Z,4.78
2022-11-12T14:02:30.616Z,5.45
2022-11-12T14:05:09.306Z,3.95
2022-11-12T14:07:55.660Z,3.00
2022-11-12T14:10:46.246Z,5.00
2022-11-12T14:13:41.689Z,4.15
2022-11-12T14:16:43.350Z,2.50
2022-11-12T14:19:19.590Z,2.95
2022-11-12T14:22:15.395Z,2.85
2022-11-12T14:24:44.192Z,2.53
2022-11-12T14:27:34.287Z,2.97
2022-11-12T14:30:11.018Z,2.75
2022-11-12T14:32:46.354Z,2.88
2022-11-12T14:35:33.532Z,5.80
2022-11-12T14:38:20.297Z,9.93
2022-11-12T14:40:49.871Z,3.40
2022-11-12T14:43:32.385Z,4.40
2022-11-12T14:46:01.996Z,3.90
2022-11-12T14:48:40.331Z,5.32
2022-11-12T14:51:14.148Z,3.08
2022-11-12T14:54:08.387Z,4.30
2022-11-12T14:56:47.648Z,3.65
2022-11-12T14:59:23.408Z,6.97
2022-11-12T15:02:36.040Z,5.63
2022-11-12T15:05:21.398Z,5.00
2022-11-12T15:08:02.096Z,4.22
2022-11-12T15:10:39.403Z,3.50
2022-11-12T15:13:15.144Z,6.47
2022-11-12T15:16:14.381Z,4.35
2022-11-12T15:18:41.914Z,4.18
2022-11-12T15:21:31.367Z,4.03
2022-11-12T15:24:37.802Z,4.30
2022-11-12T15:27:39.378Z,6.25
2022-11-12T15:30:26.467Z,5.30
2022-11-12T15:33:29.934Z,7.30
2022-11-12T15:36:01.151Z,3.80
2022-11-12T15:38:42.663Z,4.10
2022-11-12T15:41:26.353Z,5.47
2022-11-12T15:44:01.613Z,5.95
2022-11-12T15:46:29.767Z,5.43
2022-11-12T15:48:57.713Z,5.80
2022-11-12T15:51:32.710Z,5.00
2022-11-12T15:54:00.730Z,5.27
2022-11-12T15:56:28.468Z,5.93
2022-11-12T15:59:02.394Z,5.67
2022-11-12T16:01:38.419Z,5.77
2022-11-12T16:04:13.584Z,6.37
2022-11-12T16:06:42.341Z,11.47
2022-11-12T16:09:10.968Z,6.97
2022-11-12T16:11:46.061Z,7.20
2022-11-12T16:14:14.446Z,7.43
2022-11-12T16:16:42.631Z,5.37
2022-11-12T16:19:21.435Z,5.77
2022-11-12T16:21:49.215Z,8.50
2022-11-12T16:24:17.447Z,8.43
2022-11-12T16:26:52.449Z,22.90
2022-11-12T16:29:20.998Z,5.87
2022-11-12T16:31:49.269Z,7.33
2022-11-12T16:34:23.513Z,8.37
2022-11-12T16:36:51.854Z,8.03
2022-11-12T16:39:20.317Z,5.23
2022-11-12T16:41:55.465Z,6.60
2022-11-12T16:44:23.233Z,5.77
2022-11-12T16:46:51.195Z,8.97
2022-11-12T16:49:26.228Z,4.83
2022-11-12T16:51:54.544Z,4.80
2022-11-12T16:54:22.481Z,4.53
2022-11-12T16:56:57.850Z,5.47
2022-11-12T16:59:25.591Z,6.77
2022-11-12T17:02:13.834Z,7.10
2022-11-12T17:04:41.950Z,4.63
2022-11-12T17:07:09.625Z,6.77
2022-11-12T17:09:44.686Z,5.33
2022-11-12T17:12:12.525Z,5.93
2022-11-12T17:14:40.907Z,5.50
2022-11-12T17:17:15.533Z,5.67
2022-11-12T17:19:43.488Z,11.50
2022-11-12T17:22:11.163Z,5.67
2022-11-12T17:24:45.537Z,6.23
2022-11-12T17:27:13.473Z,9.23
2022-11-12T17:29:40.997Z,5.47
2022-11-12T17:32:15.506Z,6.10
2022-11-12T17:34:43.079Z,6.87
2022-11-12T17:37:12.004Z,6.47
2022-11-12T17:39:46.605Z,6.33
2022-11-12T17:42:14.337Z,6.40
2022-11-12T17:44:42.310Z,5.73
2022-11-12T17:47:16.544Z,8.00
2022-11-12T17:49:44.422Z,5.90
2022-11-12T17:52:11.858Z,7.30
2022-11-12T17:54:45.448Z,8.13
2022-11-12T17:57:13.200Z,7.17
2022-11-12T17:59:40.643Z,8.93
2022-11-12T18:02:16.415Z,7.57
2022-11-12T18:04:43.876Z,7.33
2022-11-12T18:07:11.507Z,8.87
2022-11-12T18:09:45.405Z,8.07
2022-11-12T18:12:13.127Z,8.23
2022-11-12T18:14:40.773Z,7.43
2022-11-12T18:17:14.398Z,8.73
2022-11-12T18:19:42.048Z,8.93
2022-11-12T18:22:14.073Z,8.20
2022-11-12T18:24:48.491Z,6.37
2022-11-12T18:27:16.143Z,8.57
2022-11-12T18:29:45.771Z,12.37
2022-11-12T18:32:20.496Z,9.97
2022-11-12T18:34:47.976Z,10.27
2022-11-12T18:37:15.498Z,10.07
2022-11-12T18:39:49.467Z,14.37
2022-11-12T18:42:17.063Z,10.03
2022-11-12T18:44:45.515Z,11.73
2022-11-12T18:47:19.706Z,11.13
2022-11-12T18:49:47.371Z,12.43
2022-11-12T18:52:15.110Z,10.37
2022-11-12T18:54:49.587Z,13.17
2022-11-12T18:57:17.228Z,12.17
2022-11-12T18:59:44.791Z,13.13
2022-11-12T19:02:19.459Z,14.00
2022-11-12T19:04:55.524Z,12.40
2022-11-12T19:07:29.761Z,13.23
2022-11-12T19:09:57.803Z,14.10
2022-11-12T19:12:25.601Z,13.80
2022-11-12T19:14:59.637Z,13.80
2022-11-12T19:17:31.076Z,13.00
2022-11-12T19:19:58.946Z,14.70
2022-11-12T19:22:32.665Z,14.50
2022-11-12T19:25:02.715Z,14.47
2022-11-12T19:27:31.399Z,15.20
2022-11-12T19:30:05.879Z,15.47
2022-11-12T19:32:34.100Z,16.13
2022-11-12T19:35:01.740Z,14.67
2022-11-12T19:37:36.536Z,16.90
2022-11-12T19:40:05.688Z,14.37
2022-11-12T19:42:33.262Z,14.03
2022-11-12T19:45:07.559Z,17.83
2022-11-12T19:47:35.367Z,16.60
2022-11-12T19:50:02.937Z,14.57
2022-11-12T19:52:37.564Z,16.83
2022-11-12T19:55:05.570Z,18.33
2022-11-12T19:57:33.323Z,20.93
2022-11-12T20:00:07.551Z,17.87
2022-11-12T20:02:41.899Z,19.37
2022-11-12T20:05:16.558Z,15.43
2022-11-12T20:07:44.213Z,16.10
2022-11-12T20:10:11.675Z,14.77
2022-11-12T20:12:46.588Z,15.33
2022-11-12T20:15:15.077Z,14.13
2022-11-12T20:17:42.986Z,12.83
2022-11-12T20:20:17.784Z,11.53
2022-11-12T20:22:45.586Z,16.53
2022-11-12T20:25:13.743Z,15.47
2022-11-12T20:27:55.176Z,12.43
2022-11-12T20:30:23.597Z,14.87
2022-11-12T20:32:53.005Z,12.20
2022-11-12T20:35:27.855Z,11.30
2022-11-12T20:37:55.532Z,11.07
2022-11-12T20:40:23.170Z,11.90
2022-11-12T20:42:59.558Z,9.10
2022-11-12T20:45:27.626Z,9.43
2022-11-12T20:48:05.704Z,11.40
2022-11-12T20:50:33.296Z,9.20
2022-11-12T20:53:00.963Z,7.73
2022-11-12T20:55:38.785Z,7.33
2022-11-12T20:58:07.154Z,6.23
2022-11-12T21:00:48.545Z,8.33
2022-11-12T21:03:22.756Z,7.23
2022-11-12T21:06:02.569Z,5.67
2022-11-12T21:08:32.079Z,6.50
2022-11-12T21:11:01.193Z,5.60
2022-11-12T21:13:35.809Z,12.87
2022-11-12T21:16:04.444Z,4.80
2022-11-12T21:18:46.445Z,4.63
2022-11-12T21:21:17.023Z,6.60
2022-11-12T21:23:45.067Z,4.97
2022-11-12T21:26:28.606Z,6.43
2022-11-12T21:28:56.992Z,4.63
2022-11-12T21:31:36.826Z,9.40
2022-11-12T21:34:04.746Z,7.97
2022-11-12T21:36:34.318Z,4.60
2022-11-12T21:39:09.456Z,4.97
2022-11-12T21:41:36.941Z,5.93
2022-11-12T21:44:04.445Z,5.30
2022-11-12T21:46:39.630Z,5.63
2022-11-12T21:49:07.225Z,5.27
2022-11-12T21:51:34.807Z,4.50
2022-11-12T21:54:11.546Z,5.07
2022-11-12T21:56:40.249Z,4.37
2022-11-12T21:59:07.993Z,5.43
2022-11-12T22:01:42.551Z,4.37
2022-11-12T22:04:18.485Z,4.43
2022-11-12T22:06:52.512Z,4.37
2022-11-12T22:09:20.256Z,4.63
2022-11-12T22:11:47.840Z,5.10
2022-11-12T22:14:21.553Z,5.47
2022-11-12T22:16:49.145Z,4.27
2022-11-12T22:19:17.152Z,4.10
2022-11-12T22:21:51.717Z,5.50
2022-11-12T22:24:19.492Z,4.50
2022-11-12T22:26:46.979Z,4.87
2022-11-12T22:29:21.594Z,3.20
2022-11-12T22:31:49.019Z,3.37
2022-11-12T22:34:16.687Z,5.17
2022-11-12T22:36:50.519Z,3.80
2022-11-12T22:39:20.768Z,2.73
2022-11-12T22:41:57.485Z,3.20
2022-11-12T22:44:25.703Z,2.83
2022-11-12T22:46:53.265Z,2.27
2022-11-12T22:49:41.117Z,3.10
2022-11-12T22:52:10.085Z,2.50
2022-11-12T22:54:44.691Z,2.50
2022-11-12T22:57:12.249Z,2.43
2022-11-12T22:59:40.069Z,2.00
2022-11-12T23:02:14.541Z,2.10
2022-11-12T23:04:42.548Z,1.80
2022-11-12T23:07:12.714Z,1.90
2022-11-12T23:09:46.626Z,1.77
2022-11-12T23:12:14.240Z,2.87
2022-11-12T23:14:41.775Z,2.37
2022-11-12T23:17:15.632Z,4.23
2022-11-12T23:19:43.239Z,2.50
2022-11-12T23:22:10.803Z,2.90
2022-11-12T23:24:44.589Z,3.43
2022-11-12T23:27:12.051Z,2.50
2022-11-12T23:29:39.765Z,5.57
2022-11-12T23:32:16.798Z,7.53
2022-11-12T23:34:44.495Z,5.83
2022-11-12T23:37:12.082Z,3.83
2022-11-12T23:39:46.653Z,3.33
2022-11-12T23:42:14.336Z,2.30
2022-11-12T23:44:44.666Z,3.47
2022-11-12T23:47:18.491Z,3.57
2022-11-12T23:49:48.293Z,2.83
2022-11-12T23:52:18.615Z,2.47
2022-11-12T23:54:53.542Z,2.90
2022-11-12T23:57:21.415Z,3.13
2022-11-12T23:59:53.856Z,2.80
